sensor_id;sensor_type;location;lat;lon;timestamp;pressure;altitude;pressure_sealevel;temperature;humidity
63447;BME280;49577;49.872;6.190;2023-08-20T00:00:25;99906.53;;;19.29;86.62
63447;BME280;49577;49.872;6.190;2023-08-20T00:02:58;99909.65;;;19.27;86.68
63447;BME280;49577;49.872;6.190;2023-08-20T00:05:24;99907.54;;;19.26;86.51
63447;BME280;49577;49.872;6.190;2023-08-20T00:07:50;99907.44;;;19.21;86.17
63447;BME280;49577;49.872;6.190;2023-08-20T00:10:15;99905.23;;;19.14;86.15
63447;BME280;49577;49.872;6.190;2023-08-20T00:12:40;99905.63;;;19.10;86.45
63447;BME280;49577;49.872;6.190;2023-08-20T00:15:06;99902.83;;;19.08;86.40
63447;BME280;49577;49.872;6.190;2023-08-20T00:17:33;99904.71;;;19.05;86.27
63447;BME280;49577;49.872;6.190;2023-08-20T00:19:58;99908.73;;;19.02;86.23
63447;BME280;49577;49.872;6.190;2023-08-20T00:22:25;99905.64;;;19.01;86.46
63447;BME280;49577;49.872;6.190;2023-08-20T00:24:52;99904.05;;;19.01;86.53
63447;BME280;49577;49.872;6.190;2023-08-20T00:27:17;99905.64;;;19.01;86.51
63447;BME280;49577;49.872;6.190;2023-08-20T00:29:43;99904.92;;;18.99;86.42
63447;BME280;49577;49.872;6.190;2023-08-20T00:32:08;99910.39;;;18.97;86.42
63447;BME280;49577;49.872;6.190;2023-08-20T00:34:34;99911.71;;;18.96;86.63
63447;BME280;49577;49.872;6.190;2023-08-20T00:37:00;99914.13;;;18.97;86.94
63447;BME280;49577;49.872;6.190;2023-08-20T00:39:25;99917.87;;;18.99;86.92
63447;BME280;49577;49.872;6.190;2023-08-20T00:41:51;99918.08;;;19.00;86.89
63447;BME280;49577;49.872;6.190;2023-08-20T00:44:16;99919.17;;;19.00;86.94
63447;BME280;49577;49.872;6.190;2023-08-20T00:46:41;99916.65;;;18.99;87.04
63447;BME280;49577;49.872;6.190;2023-08-20T00:49:07;99914.98;;;18.99;87.15
63447;BME280;49577;49.872;6.190;2023-08-20T00:51:33;99916.20;;;19.01;87.23
63447;BME280;49577;49.872;6.190;2023-08-20T00:53:59;99915.96;;;19.02;87.22
63447;BME280;49577;49.872;6.190;2023-08-20T00:56:25;99917.11;;;19.03;86.97
63447;BME280;49577;49.872;6.190;2023-08-20T00:58:53;99919.27;;;19.04;87.00
63447;BME280;49577;49.872;6.190;2023-08-20T01:01:18;99920.90;;;19.04;86.86
63447;BME280;49577;49.872;6.190;2023-08-20T01:03:43;99925.02;;;19.04;86.79
63447;BME280;49577;49.872;6.190;2023-08-20T01:06:19;99921.55;;;19.03;86.82
63447;BME280;49577;49.872;6.190;2023-08-20T01:08:47;99919.89;;;19.02;86.89
63447;BME280;49577;49.872;6.190;2023-08-20T01:11:19;99921.40;;;19.01;86.99
63447;BME280;49577;49.872;6.190;2023-08-20T01:13:46;99924.17;;;19.01;87.04
63447;BME280;49577;49.872;6.190;2023-08-20T01:16:11;99925.73;;;19.02;86.82
63447;BME280;49577;49.872;6.190;2023-08-20T01:18:37;99927.53;;;19.00;86.72
63447;BME280;49577;49.872;6.190;2023-08-20T01:21:06;99922.03;;;18.96;86.70
63447;BME280;49577;49.872;6.190;2023-08-20T01:23:56;99919.52;;;18.92;86.72
63447;BME280;49577;49.872;6.190;2023-08-20T01:26:32;99914.19;;;18.86;86.71
63447;BME280;49577;49.872;6.190;2023-08-20T01:29:02;99917.71;;;18.83;86.75
63447;BME280;49577;49.872;6.190;2023-08-20T01:31:30;99916.60;;;18.80;86.99
63447;BME280;49577;49.872;6.190;2023-08-20T01:33:57;99915.98;;;18.79;87.11
63447;BME280;49577;49.872;6.190;2023-08-20T01:36:23;99915.27;;;18.81;87.31
63447;BME280;49577;49.872;6.190;2023-08-20T01:38:48;99910.38;;;18.84;87.37
63447;BME280;49577;49.872;6.190;2023-08-20T01:41:13;99908.74;;;18.86;87.28
63447;BME280;49577;49.872;6.190;2023-08-20T01:43:38;99910.86;;;18.90;87.22
63447;BME280;49577;49.872;6.190;2023-08-20T01:46:04;99907.09;;;18.90;86.99
63447;BME280;49577;49.872;6.190;2023-08-20T01:48:29;99900.52;;;18.89;86.96
63447;BME280;49577;49.872;6.190;2023-08-20T01:50:54;99900.98;;;18.87;86.96
63447;BME280;49577;49.872;6.190;2023-08-20T01:53:20;99897.37;;;18.86;87.11
63447;BME280;49577;49.872;6.190;2023-08-20T01:55:45;99898.27;;;18.87;87.20
63447;BME280;49577;49.872;6.190;2023-08-20T01:58:10;99894.67;;;18.89;87.27
63447;BME280;49577;49.872;6.190;2023-08-20T02:00:36;99897.73;;;18.92;87.30
63447;BME280;49577;49.872;6.190;2023-08-20T02:03:01;99898.52;;;18.95;87.12
63447;BME280;49577;49.872;6.190;2023-08-20T02:05:27;99899.86;;;18.96;87.13
63447;BME280;49577;49.872;6.190;2023-08-20T02:07:53;99903.20;;;18.99;87.01
63447;BME280;49577;49.872;6.190;2023-08-20T02:10:19;99907.73;;;19.01;87.08
63447;BME280;49577;49.872;6.190;2023-08-20T02:12:44;99915.76;;;19.04;87.08
63447;BME280;49577;49.872;6.190;2023-08-20T02:15:09;99913.91;;;19.07;87.02
63447;BME280;49577;49.872;6.190;2023-08-20T02:17:36;99922.46;;;19.08;86.90
63447;BME280;49577;49.872;6.190;2023-08-20T02:20:02;99926.02;;;19.08;86.85
63447;BME280;49577;49.872;6.190;2023-08-20T02:22:29;99921.57;;;19.07;86.44
63447;BME280;49577;49.872;6.190;2023-08-20T02:24:55;99921.55;;;19.03;86.49
63447;BME280;49577;49.872;6.190;2023-08-20T02:27:20;99928.34;;;19.00;86.53
63447;BME280;49577;49.872;6.190;2023-08-20T02:29:45;99934.05;;;18.96;86.34
63447;BME280;49577;49.872;6.190;2023-08-20T02:32:10;99937.72;;;18.90;86.32
63447;BME280;49577;49.872;6.190;2023-08-20T02:34:36;99937.39;;;18.88;86.67
63447;BME280;49577;49.872;6.190;2023-08-20T02:37:01;99939.23;;;18.89;86.71
63447;BME280;49577;49.872;6.190;2023-08-20T02:39:26;99940.27;;;18.90;86.69
63447;BME280;49577;49.872;6.190;2023-08-20T02:41:52;99940.06;;;18.90;86.71
63447;BME280;49577;49.872;6.190;2023-08-20T02:44:17;99942.20;;;18.92;86.74
63447;BME280;49577;49.872;6.190;2023-08-20T02:46:42;99942.31;;;18.92;86.71
63447;BME280;49577;49.872;6.190;2023-08-20T02:49:09;99941.69;;;18.93;86.72
63447;BME280;49577;49.872;6.190;2023-08-20T02:51:35;99937.30;;;18.95;86.54
63447;BME280;49577;49.872;6.190;2023-08-20T02:54:00;99941.62;;;18.97;86.37
63447;BME280;49577;49.872;6.190;2023-08-20T02:56:25;99939.24;;;18.97;86.41
63447;BME280;49577;49.872;6.190;2023-08-20T02:58:51;99937.27;;;18.98;86.35
63447;BME280;49577;49.872;6.190;2023-08-20T03:01:23;99934.55;;;18.98;86.29
63447;BME280;49577;49.872;6.190;2023-08-20T03:03:49;99939.86;;;18.96;86.06
63447;BME280;49577;49.872;6.190;2023-08-20T03:06:14;99942.66;;;18.92;86.15
63447;BME280;49577;49.872;6.190;2023-08-20T03:08:39;99939.95;;;18.87;86.12
63447;BME280;49577;49.872;6.190;2023-08-20T03:11:05;99940.80;;;18.86;86.36
63447;BME280;49577;49.872;6.190;2023-08-20T03:13:30;99938.02;;;18.87;86.49
63447;BME280;49577;49.872;6.190;2023-08-20T03:15:55;99938.63;;;18.88;86.48
63447;BME280;49577;49.872;6.190;2023-08-20T03:18:21;99933.15;;;18.88;86.61
63447;BME280;49577;49.872;6.190;2023-08-20T03:20:46;99940.98;;;18.90;86.68
63447;BME280;49577;49.872;6.190;2023-08-20T03:23:11;99939.23;;;18.89;86.58
63447;BME280;49577;49.872;6.190;2023-08-20T03:25:38;99943.49;;;18.87;86.49
63447;BME280;49577;49.872;6.190;2023-08-20T03:28:03;99942.47;;;18.87;86.73
63447;BME280;49577;49.872;6.190;2023-08-20T03:30:29;99943.12;;;18.86;86.82
63447;BME280;49577;49.872;6.190;2023-08-20T03:32:54;99940.38;;;18.83;86.83
63447;BME280;49577;49.872;6.190;2023-08-20T03:35:19;99933.45;;;18.79;87.13
63447;BME280;49577;49.872;6.190;2023-08-20T03:37:45;99936.42;;;18.76;87.33
63447;BME280;49577;49.872;6.190;2023-08-20T03:40:10;99941.17;;;18.72;87.55
63447;BME280;49577;49.872;6.190;2023-08-20T03:42:36;99948.52;;;18.69;87.86
63447;BME280;49577;49.872;6.190;2023-08-20T03:45:01;99946.92;;;18.69;88.03
63447;BME280;49577;49.872;6.190;2023-08-20T03:47:26;99945.02;;;18.67;87.90
63447;BME280;49577;49.872;6.190;2023-08-20T03:49:52;99945.67;;;18.65;88.23
63447;BME280;49577;49.872;6.190;2023-08-20T03:52:17;99943.59;;;18.63;88.12
63447;BME280;49577;49.872;6.190;2023-08-20T03:54:42;99942.55;;;18.61;88.35
63447;BME280;49577;49.872;6.190;2023-08-20T03:57:08;99940.63;;;18.58;88.45
63447;BME280;49577;49.872;6.190;2023-08-20T03:59:33;99945.06;;;18.57;88.19
63447;BME280;49577;49.872;6.190;2023-08-20T04:01:58;99948.17;;;18.55;88.32
63447;BME280;49577;49.872;6.190;2023-08-20T04:04:24;99951.66;;;18.56;88.48
63447;BME280;49577;49.872;6.190;2023-08-20T04:06:49;99955.75;;;18.58;88.43
63447;BME280;49577;49.872;6.190;2023-08-20T04:09:15;99956.94;;;18.60;88.36
63447;BME280;49577;49.872;6.190;2023-08-20T04:11:41;99959.83;;;18.61;88.27
63447;BME280;49577;49.872;6.190;2023-08-20T04:14:06;99962.93;;;18.62;88.05
63447;BME280;49577;49.872;6.190;2023-08-20T04:16:32;99965.55;;;18.61;87.59
63447;BME280;49577;49.872;6.190;2023-08-20T04:18:57;99968.48;;;18.58;87.43
63447;BME280;49577;49.872;6.190;2023-08-20T04:21:23;99968.63;;;18.54;87.37
63447;BME280;49577;49.872;6.190;2023-08-20T04:23:48;99970.79;;;18.52;87.23
63447;BME280;49577;49.872;6.190;2023-08-20T04:26:13;99971.49;;;18.50;87.33
63447;BME280;49577;49.872;6.190;2023-08-20T04:28:39;99973.76;;;18.50;87.63
63447;BME280;49577;49.872;6.190;2023-08-20T04:31:04;99979.54;;;18.53;87.58
63447;BME280;49577;49.872;6.190;2023-08-20T04:33:29;99978.54;;;18.54;87.59
63447;BME280;49577;49.872;6.190;2023-08-20T04:35:55;99982.42;;;18.54;87.44
63447;BME280;49577;49.872;6.190;2023-08-20T04:38:20;99983.02;;;18.55;87.43
63447;BME280;49577;49.872;6.190;2023-08-20T04:40:46;99985.33;;;18.57;87.52
63447;BME280;49577;49.872;6.190;2023-08-20T04:43:12;99993.73;;;18.60;87.32
63447;BME280;49577;49.872;6.190;2023-08-20T04:45:37;99996.65;;;18.61;87.13
63447;BME280;49577;49.872;6.190;2023-08-20T04:48:03;99996.39;;;18.62;87.11
63447;BME280;49577;49.872;6.190;2023-08-20T04:50:28;99994.05;;;18.63;86.77
63447;BME280;49577;49.872;6.190;2023-08-20T04:52:53;99989.83;;;18.62;86.75
63447;BME280;49577;49.872;6.190;2023-08-20T04:55:19;99989.63;;;18.64;86.67
63447;BME280;49577;49.872;6.190;2023-08-20T04:57:45;99993.21;;;18.66;86.44
63447;BME280;49577;49.872;6.190;2023-08-20T05:00:10;99995.30;;;18.66;86.28
63447;BME280;49577;49.872;6.190;2023-08-20T05:02:36;100001.02;;;18.65;86.07
63447;BME280;49577;49.872;6.190;2023-08-20T05:05:02;99997.92;;;18.66;86.04
63447;BME280;49577;49.872;6.190;2023-08-20T05:07:28;99997.61;;;18.66;85.86
63447;BME280;49577;49.872;6.190;2023-08-20T05:09:53;99994.20;;;18.65;85.88
63447;BME280;49577;49.872;6.190;2023-08-20T05:12:18;99995.20;;;18.65;86.29
63447;BME280;49577;49.872;6.190;2023-08-20T05:14:43;99993.98;;;18.67;86.29
63447;BME280;49577;49.872;6.190;2023-08-20T05:17:09;99993.80;;;18.67;86.32
63447;BME280;49577;49.872;6.190;2023-08-20T05:19:34;99994.36;;;18.67;86.79
63447;BME280;49577;49.872;6.190;2023-08-20T05:21:59;99996.08;;;18.70;87.23
63447;BME280;49577;49.872;6.190;2023-08-20T05:24:25;99998.19;;;18.76;87.28
63447;BME280;49577;49.872;6.190;2023-08-20T05:27:04;100005.17;;;18.84;87.19
63447;BME280;49577;49.872;6.190;2023-08-20T05:29:30;100002.16;;;18.94;86.99
63447;BME280;49577;49.872;6.190;2023-08-20T05:31:55;100000.53;;;19.01;86.90
63447;BME280;49577;49.872;6.190;2023-08-20T05:34:21;100004.67;;;19.04;86.93
63447;BME280;49577;49.872;6.190;2023-08-20T05:36:46;100007.86;;;19.04;87.05
63447;BME280;49577;49.872;6.190;2023-08-20T05:39:11;100006.41;;;19.04;87.13
63447;BME280;49577;49.872;6.190;2023-08-20T05:41:36;100002.89;;;19.04;87.09
63447;BME280;49577;49.872;6.190;2023-08-20T05:44:02;100004.36;;;19.05;87.30
63447;BME280;49577;49.872;6.190;2023-08-20T05:46:27;100006.27;;;19.07;87.51
63447;BME280;49577;49.872;6.190;2023-08-20T05:48:52;100006.02;;;19.12;87.49
63447;BME280;49577;49.872;6.190;2023-08-20T05:51:18;100002.54;;;19.17;87.28
63447;BME280;49577;49.872;6.190;2023-08-20T05:53:43;100006.50;;;19.22;87.36
63447;BME280;49577;49.872;6.190;2023-08-20T05:56:08;100013.76;;;19.34;87.29
63447;BME280;49577;49.872;6.190;2023-08-20T05:58:34;100014.40;;;19.46;86.91
63447;BME280;49577;49.872;6.190;2023-08-20T06:00:59;100011.34;;;19.54;86.64
63447;BME280;49577;49.872;6.190;2023-08-20T06:03:24;100013.08;;;19.60;86.22
63447;BME280;49577;49.872;6.190;2023-08-20T06:05:50;100012.59;;;19.79;86.03
63447;BME280;49577;49.872;6.190;2023-08-20T06:08:15;100016.88;;;19.97;85.64
63447;BME280;49577;49.872;6.190;2023-08-20T06:10:40;100018.08;;;20.18;84.99
63447;BME280;49577;49.872;6.190;2023-08-20T06:13:06;100019.60;;;20.29;84.31
63447;BME280;49577;49.872;6.190;2023-08-20T06:15:31;100018.52;;;20.36;84.03
63447;BME280;49577;49.872;6.190;2023-08-20T06:17:56;100023.27;;;20.46;83.55
63447;BME280;49577;49.872;6.190;2023-08-20T06:20:22;100026.41;;;20.55;83.02
63447;BME280;49577;49.872;6.190;2023-08-20T06:22:47;100023.55;;;20.58;82.57
63447;BME280;49577;49.872;6.190;2023-08-20T06:25:12;100017.64;;;20.62;82.39
63447;BME280;49577;49.872;6.190;2023-08-20T06:27:38;100014.64;;;20.82;82.27
63447;BME280;49577;49.872;6.190;2023-08-20T06:30:03;100009.77;;;21.02;81.48
63447;BME280;49577;49.872;6.190;2023-08-20T06:32:29;100011.70;;;21.15;80.82
63447;BME280;49577;49.872;6.190;2023-08-20T06:34:54;100014.89;;;21.40;80.29
63447;BME280;49577;49.872;6.190;2023-08-20T06:37:19;100016.67;;;22.24;78.57
63447;BME280;49577;49.872;6.190;2023-08-20T06:39:45;100012.89;;;22.88;76.69
63447;BME280;49577;49.872;6.190;2023-08-20T06:42:10;100013.25;;;23.21;75.11
63447;BME280;49577;49.872;6.190;2023-08-20T06:44:35;100015.94;;;23.68;73.63
63447;BME280;49577;49.872;6.190;2023-08-20T06:47:01;100017.98;;;24.26;71.99
63447;BME280;49577;49.872;6.190;2023-08-20T06:49:26;100018.59;;;24.86;70.47
63447;BME280;49577;49.872;6.190;2023-08-20T06:51:51;100017.03;;;25.60;68.26
63447;BME280;49577;49.872;6.190;2023-08-20T06:54:17;100014.01;;;26.44;66.07
63447;BME280;49577;49.872;6.190;2023-08-20T06:56:42;100010.38;;;27.36;63.41
63447;BME280;49577;49.872;6.190;2023-08-20T06:59:07;100001.97;;;28.30;60.85
63447;BME280;49577;49.872;6.190;2023-08-20T07:01:33;100006.08;;;29.04;58.70
63447;BME280;49577;49.872;6.190;2023-08-20T07:03:58;100008.23;;;29.81;56.33
63447;BME280;49577;49.872;6.190;2023-08-20T07:06:24;100004.42;;;30.50;53.63
63447;BME280;49577;49.872;6.190;2023-08-20T07:08:50;99996.34;;;31.03;51.83
63447;BME280;49577;49.872;6.190;2023-08-20T07:11:15;99992.02;;;31.62;50.21
63447;BME280;49577;49.872;6.190;2023-08-20T07:13:40;99996.59;;;32.03;48.77
63447;BME280;49577;49.872;6.190;2023-08-20T07:16:06;100008.13;;;32.49;47.97
63447;BME280;49577;49.872;6.190;2023-08-20T07:18:31;100014.85;;;32.93;46.75
63447;BME280;49577;49.872;6.190;2023-08-20T07:20:56;100026.03;;;33.36;45.43
63447;BME280;49577;49.872;6.190;2023-08-20T07:23:22;100021.55;;;33.86;44.31
63447;BME280;49577;49.872;6.190;2023-08-20T07:25:47;100020.86;;;34.31;43.07
63447;BME280;49577;49.872;6.190;2023-08-20T07:28:13;100025.31;;;34.60;42.27
63447;BME280;49577;49.872;6.190;2023-08-20T07:30:39;100025.42;;;34.93;41.77
63447;BME280;49577;49.872;6.190;2023-08-20T07:33:06;100027.99;;;35.30;41.09
63447;BME280;49577;49.872;6.190;2023-08-20T07:35:32;100026.95;;;35.51;39.60
63447;BME280;49577;49.872;6.190;2023-08-20T07:37:58;100028.48;;;35.59;38.96
63447;BME280;49577;49.872;6.190;2023-08-20T07:40:23;100025.27;;;35.91;38.78
63447;BME280;49577;49.872;6.190;2023-08-20T07:42:49;100021.59;;;36.22;37.54
63447;BME280;49577;49.872;6.190;2023-08-20T07:45:15;100019.48;;;36.32;37.16
63447;BME280;49577;49.872;6.190;2023-08-20T07:47:40;100021.29;;;36.52;36.80
63447;BME280;49577;49.872;6.190;2023-08-20T07:50:06;100019.27;;;36.90;36.35
63447;BME280;49577;49.872;6.190;2023-08-20T07:52:32;100020.73;;;37.26;35.62
63447;BME280;49577;49.872;6.190;2023-08-20T07:54:57;100022.14;;;37.70;35.10
63447;BME280;49577;49.872;6.190;2023-08-20T07:57:23;100016.71;;;38.08;34.32
63447;BME280;49577;49.872;6.190;2023-08-20T07:59:49;100016.27;;;38.20;33.82
63447;BME280;49577;49.872;6.190;2023-08-20T08:02:15;100018.84;;;38.54;33.28
63447;BME280;49577;49.872;6.190;2023-08-20T08:04:40;100024.40;;;38.45;32.85
63447;BME280;49577;49.872;6.190;2023-08-20T08:07:05;100021.83;;;38.39;32.99
63447;BME280;49577;49.872;6.190;2023-08-20T08:09:31;100026.48;;;38.62;32.77
63447;BME280;49577;49.872;6.190;2023-08-20T08:11:58;100025.80;;;37.92;32.67
63447;BME280;49577;49.872;6.190;2023-08-20T08:14:23;100031.46;;;37.16;33.34
63447;BME280;49577;49.872;6.190;2023-08-20T08:16:49;100028.36;;;36.70;34.18
63447;BME280;49577;49.872;6.190;2023-08-20T08:19:14;100024.40;;;36.94;34.10
63447;BME280;49577;49.872;6.190;2023-08-20T08:21:41;100022.38;;;37.33;33.92
63447;BME280;49577;49.872;6.190;2023-08-20T08:24:07;100014.77;;;37.71;33.25
63447;BME280;49577;49.872;6.190;2023-08-20T08:26:33;100010.23;;;38.19;32.88
63447;BME280;49577;49.872;6.190;2023-08-20T08:28:59;100008.93;;;38.57;31.95
63447;BME280;49577;49.872;6.190;2023-08-20T08:31:24;100012.19;;;39.02;31.60
63447;BME280;49577;49.872;6.190;2023-08-20T08:33:50;100009.02;;;39.32;31.04
63447;BME280;49577;49.872;6.190;2023-08-20T08:36:15;100007.23;;;39.67;30.70
63447;BME280;49577;49.872;6.190;2023-08-20T08:38:42;100009.38;;;40.00;30.13
63447;BME280;49577;49.872;6.190;2023-08-20T08:41:12;100011.41;;;40.18;29.89
63447;BME280;49577;49.872;6.190;2023-08-20T08:43:39;100011.90;;;40.52;29.57
63447;BME280;49577;49.872;6.190;2023-08-20T08:46:07;100012.06;;;40.91;28.98
63447;BME280;49577;49.872;6.190;2023-08-20T08:48:34;100013.42;;;41.32;28.87
63447;BME280;49577;49.872;6.190;2023-08-20T08:51:00;100011.58;;;41.68;28.42
63447;BME280;49577;49.872;6.190;2023-08-20T08:53:26;100008.34;;;41.83;27.92
63447;BME280;49577;49.872;6.190;2023-08-20T08:55:51;100008.23;;;42.02;27.72
63447;BME280;49577;49.872;6.190;2023-08-20T08:58:17;100007.46;;;42.09;27.50
63447;BME280;49577;49.872;6.190;2023-08-20T09:00:42;100011.64;;;42.14;27.33
63447;BME280;49577;49.872;6.190;2023-08-20T09:03:07;100016.08;;;42.20;27.22
63447;BME280;49577;49.872;6.190;2023-08-20T09:05:32;100018.59;;;42.38;26.90
63447;BME280;49577;49.872;6.190;2023-08-20T09:08:10;100021.48;;;42.45;26.90
63447;BME280;49577;49.872;6.190;2023-08-20T09:10:43;100022.14;;;42.48;26.49
63447;BME280;49577;49.872;6.190;2023-08-20T09:13:08;100021.25;;;42.41;26.34
63447;BME280;49577;49.872;6.190;2023-08-20T09:15:34;100021.41;;;42.52;26.23
63447;BME280;49577;49.872;6.190;2023-08-20T09:18:01;100020.69;;;42.61;25.98
63447;BME280;49577;49.872;6.190;2023-08-20T09:20:35;100014.02;;;42.80;25.84
63447;BME280;49577;49.872;6.190;2023-08-20T09:23:01;100009.71;;;42.81;25.36
63447;BME280;49577;49.872;6.190;2023-08-20T09:25:26;100006.65;;;42.82;25.34
63447;BME280;49577;49.872;6.190;2023-08-20T09:27:53;100000.83;;;42.89;25.00
63447;BME280;49577;49.872;6.190;2023-08-20T09:30:19;100003.64;;;42.78;25.00
63447;BME280;49577;49.872;6.190;2023-08-20T09:32:45;99999.74;;;42.67;24.84
63447;BME280;49577;49.872;6.190;2023-08-20T09:35:27;100000.05;;;42.78;24.57
63447;BME280;49577;49.872;6.190;2023-08-20T09:37:58;99999.23;;;42.75;23.79
63447;BME280;49577;49.872;6.190;2023-08-20T09:40:24;99999.94;;;42.75;23.48
63447;BME280;49577;49.872;6.190;2023-08-20T09:42:51;99997.27;;;43.03;23.36
63447;BME280;49577;49.872;6.190;2023-08-20T09:45:16;99998.86;;;43.35;23.07
63447;BME280;49577;49.872;6.190;2023-08-20T09:47:43;99999.01;;;43.74;22.84
63447;BME280;49577;49.872;6.190;2023-08-20T09:50:11;99997.13;;;43.79;22.32
63447;BME280;49577;49.872;6.190;2023-08-20T09:52:47;99992.45;;;43.74;21.81
63447;BME280;49577;49.872;6.190;2023-08-20T09:55:20;99990.70;;;43.50;21.71
63447;BME280;49577;49.872;6.190;2023-08-20T09:57:47;99992.41;;;43.37;21.53
63447;BME280;49577;49.872;6.190;2023-08-20T10:00:13;99994.45;;;43.41;21.55
63447;BME280;49577;49.872;6.190;2023-08-20T10:02:40;99992.27;;;43.61;21.55
63447;BME280;49577;49.872;6.190;2023-08-20T10:05:07;99996.20;;;43.79;21.08
63447;BME280;49577;49.872;6.190;2023-08-20T10:07:33;99992.80;;;43.81;21.37
63447;BME280;49577;49.872;6.190;2023-08-20T10:10:01;99991.08;;;43.93;21.01
63447;BME280;49577;49.872;6.190;2023-08-20T10:12:27;99991.48;;;43.92;20.88
63447;BME280;49577;49.872;6.190;2023-08-20T10:14:54;99994.36;;;43.92;20.62
63447;BME280;49577;49.872;6.190;2023-08-20T10:17:19;99997.17;;;43.83;20.24
63447;BME280;49577;49.872;6.190;2023-08-20T10:19:46;99997.05;;;43.71;20.04
63447;BME280;49577;49.872;6.190;2023-08-20T10:22:12;100000.35;;;43.85;19.93
63447;BME280;49577;49.872;6.190;2023-08-20T10:24:41;100004.79;;;44.23;19.58
63447;BME280;49577;49.872;6.190;2023-08-20T10:27:11;99999.31;;;44.36;19.21
63447;BME280;49577;49.872;6.190;2023-08-20T10:29:38;100000.11;;;44.40;19.41
63447;BME280;49577;49.872;6.190;2023-08-20T10:32:10;99997.04;;;44.41;19.36
63447;BME280;49577;49.872;6.190;2023-08-20T10:34:37;100000.02;;;44.29;19.39
63447;BME280;49577;49.872;6.190;2023-08-20T10:37:12;100000.98;;;44.22;19.18
63447;BME280;49577;49.872;6.190;2023-08-20T10:39:37;99999.95;;;44.24;19.17
63447;BME280;49577;49.872;6.190;2023-08-20T10:44:59;99992.27;;;44.35;18.47
63447;BME280;49577;49.872;6.190;2023-08-20T10:47:25;99987.58;;;44.63;17.15
63447;BME280;49577;49.872;6.190;2023-08-20T10:49:54;99985.17;;;44.60;15.81
63447;BME280;49577;49.872;6.190;2023-08-20T10:52:23;99986.76;;;44.44;16.04
63447;BME280;49577;49.872;6.190;2023-08-20T10:54:50;99984.40;;;44.50;16.38
63447;BME280;49577;49.872;6.190;2023-08-20T10:57:16;99981.98;;;44.47;16.64
63447;BME280;49577;49.872;6.190;2023-08-20T10:59:42;99989.38;;;44.11;16.94
63447;BME280;49577;49.872;6.190;2023-08-20T11:02:12;99987.77;;;44.06;17.65
63447;BME280;49577;49.872;6.190;2023-08-20T11:04:40;99991.43;;;44.10;17.70
63447;BME280;49577;49.872;6.190;2023-08-20T11:07:06;99988.82;;;43.79;18.01
63447;BME280;49577;49.872;6.190;2023-08-20T11:09:31;99985.61;;;43.62;18.39
63447;BME280;49577;49.872;6.190;2023-08-20T11:11:58;99984.39;;;43.79;17.82
63447;BME280;49577;49.872;6.190;2023-08-20T11:14:24;99985.86;;;44.09;17.90
63447;BME280;49577;49.872;6.190;2023-08-20T11:16:49;99985.11;;;44.18;17.90
63447;BME280;49577;49.872;6.190;2023-08-20T11:19:19;99981.76;;;44.36;17.14
63447;BME280;49577;49.872;6.190;2023-08-20T11:21:45;99980.48;;;44.40;17.10
63447;BME280;49577;49.872;6.190;2023-08-20T11:24:11;99980.63;;;44.68;17.26
63447;BME280;49577;49.872;6.190;2023-08-20T11:26:40;99976.20;;;44.87;17.11
63447;BME280;49577;49.872;6.190;2023-08-20T11:29:06;99975.87;;;44.79;17.20
63447;BME280;49577;49.872;6.190;2023-08-20T11:31:32;99971.40;;;44.46;17.31
63447;BME280;49577;49.872;6.190;2023-08-20T11:33:57;99972.05;;;44.07;17.77
63447;BME280;49577;49.872;6.190;2023-08-20T11:36:23;99972.73;;;43.34;17.92
63447;BME280;49577;49.872;6.190;2023-08-20T11:38:50;99968.55;;;42.81;18.97
63447;BME280;49577;49.872;6.190;2023-08-20T11:41:17;99964.39;;;42.62;19.31
63447;BME280;49577;49.872;6.190;2023-08-20T11:43:43;99963.90;;;42.75;19.53
63447;BME280;49577;49.872;6.190;2023-08-20T11:46:13;99966.27;;;42.91;19.05
63447;BME280;49577;49.872;6.190;2023-08-20T11:49:04;99966.16;;;43.20;19.01
63447;BME280;49577;49.872;6.190;2023-08-20T11:51:35;99960.91;;;43.30;19.32
63447;BME280;49577;49.872;6.190;2023-08-20T11:54:02;99959.27;;;43.40;19.14
63447;BME280;49577;49.872;6.190;2023-08-20T11:56:29;99957.83;;;43.02;19.39
63447;BME280;49577;49.872;6.190;2023-08-20T11:58:59;99957.56;;;42.57;19.72
63447;BME280;49577;49.872;6.190;2023-08-20T12:01:24;99954.27;;;42.14;19.87
63447;BME280;49577;49.872;6.190;2023-08-20T12:03:50;99953.13;;;41.56;20.09
63447;BME280;49577;49.872;6.190;2023-08-20T12:06:22;99953.23;;;40.95;20.78
63447;BME280;49577;49.872;6.190;2023-08-20T12:08:53;99949.05;;;40.53;21.12
63447;BME280;49577;49.872;6.190;2023-08-20T12:11:23;99947.16;;;40.25;21.18
63447;BME280;49577;49.872;6.190;2023-08-20T12:13:49;99945.48;;;39.98;21.70
63447;BME280;49577;49.872;6.190;2023-08-20T12:16:14;99946.52;;;39.73;21.80
63447;BME280;49577;49.872;6.190;2023-08-20T12:18:39;99945.78;;;39.61;22.18
63447;BME280;49577;49.872;6.190;2023-08-20T12:21:05;99945.17;;;39.44;22.04
63447;BME280;49577;49.872;6.190;2023-08-20T12:23:30;99941.66;;;39.22;22.32
63447;BME280;49577;49.872;6.190;2023-08-20T12:25:56;99942.16;;;39.08;22.63
63447;BME280;49577;49.872;6.190;2023-08-20T12:28:21;99935.37;;;39.07;22.68
63447;BME280;49577;49.872;6.190;2023-08-20T12:30:47;99931.71;;;38.69;22.93
63447;BME280;49577;49.872;6.190;2023-08-20T12:33:13;99929.54;;;38.18;23.53
63447;BME280;49577;49.872;6.190;2023-08-20T12:35:39;99930.23;;;37.93;24.00
63447;BME280;49577;49.872;6.190;2023-08-20T12:38:04;99933.45;;;37.79;24.09
63447;BME280;49577;49.872;6.190;2023-08-20T12:40:30;99931.50;;;37.58;24.46
63447;BME280;49577;49.872;6.190;2023-08-20T12:42:55;99930.55;;;37.67;24.57
63447;BME280;49577;49.872;6.190;2023-08-20T12:45:21;99930.33;;;37.80;24.41
63447;BME280;49577;49.872;6.190;2023-08-20T12:47:46;99929.59;;;37.83;24.70
63447;BME280;49577;49.872;6.190;2023-08-20T12:50:11;99924.62;;;37.62;24.73
63447;BME280;49577;49.872;6.190;2023-08-20T12:52:39;99921.36;;;37.44;25.03
63447;BME280;49577;49.872;6.190;2023-08-20T12:55:04;99918.33;;;37.33;25.37